Algowood — VCTD — position and weather

sailwx.info

Track history (hours):
 
Tides and Currents Weather Stations Pressure Air Temp Water Temp Dewpoint Dewpoint Depression Visibility Wind Speed Wind Dir Waves Ship Positions

Algowood

Last reported at 2016-Jan-03 14:20 UTC. Time now 2016-Feb-11 02:26 UTC.
Position N 44°11' W 076°19'.
Warning: this ship's position is 38 days out of date.

Length 223 m; draft 8.1 m.

Type: Cargo ship. MMSI: 316001802.

Date/timePositionNaut miles runAvg speedWind from/ knotsBaromVisibWave heightAir tempDewpointWater temp
2016-Jan-03 14:20N 44°11' W 076°19'1 1.3
2016-Jan-03 13:34N 44°11' W 076°19'4 4.0
2016-Jan-03 12:34N 44°12' W 076°14'5 5.0
2016-Jan-03 11:34N 44°09' W 076°20'5 5.0
2016-Jan-03 10:34N 44°06' W 076°25'5 5.0
2016-Jan-03 09:34N 44°09' W 076°20'1 1.5
2016-Jan-03 08:34N 44°11' W 076°19'1 1.5
2016-Jan-03 07:34N 44°09' W 076°20'5 4.8
2016-Jan-03 06:34N 44°12' W 076°15'0 0.2
2016-Jan-03 05:34N 44°12' W 076°14'4 3.7
2016-Jan-03 04:34N 44°11' W 076°19'7 6.6
2016-Jan-03 03:33N 44°06' W 076°25'0 0.0
2016-Jan-03 02:33N 44°06' W 076°25'0 0.0
2016-Jan-03 01:33N 44°06' W 076°25'0 0.0
2016-Jan-03 00:34N 44°06' W 076°25'0 0.3
2016-Jan-02 23:34N 44°05' W 076°25'2 1.8
2016-Jan-02 22:34N 44°04' W 076°26'2 2.1
2016-Jan-02 21:33N 44°06' W 076°25'0 0.3
2016-Jan-02 20:34N 44°05' W 076°25'7 6.8
2016-Jan-02 19:34N 44°11' W 076°19'7 6.6
2016-Jan-02 18:33N 44°06' W 076°25'6 6.3
2016-Jan-02 17:34N 44°11' W 076°19'6 6.3
2016-Jan-02 16:34N 44°06' W 076°25'0 0.0
2016-Jan-02 15:33N 44°06' W 076°25'5 5.0
2016-Jan-02 14:34N 44°09' W 076°20'5 5.0
2016-Jan-02 13:33N 44°06' W 076°25'4 4.3
2016-Jan-02 12:34N 44°08' W 076°20'2 2.2
2016-Jan-02 11:34N 44°11' W 076°19'6 6.3
2016-Jan-02 10:34N 44°06' W 076°25'5 5.0
2016-Jan-02 09:34N 44°09' W 076°20'5 5.0
2016-Jan-02 08:33N 44°06' W 076°25'0 0.0
2016-Jan-02 07:33N 44°06' W 076°25'9 9.3
2016-Jan-02 06:34N 44°12' W 076°15'9 9.3
2016-Jan-02 05:33N 44°06' W 076°25'0 0.0
2016-Jan-02 04:33N 44°06' W 076°25'7 7.3
2016-Jan-02 03:34N 44°11' W 076°19'3 2.8
2016-Jan-02 02:34N 44°09' W 076°20'0 0.4
2016-Jan-02 01:34N 44°08' W 076°20'4 4.3
2016-Jan-02 00:33N 44°06' W 076°25'0 0.0
2016-Jan-01 23:34N 44°06' W 076°25'0 0.0
2016-Jan-01 22:34N 44°06' W 076°25'0 0.3
2016-Jan-01 21:34N 44°05' W 076°25'0 0.3
2016-Jan-01 20:34N 44°06' W 076°25'1010.0
2016-Jan-01 19:34N 44°12' W 076°14'4 3.9
2016-Jan-01 18:34N 44°11' W 076°19'1 0.7
2016-Jan-01 17:34N 44°11' W 076°19'2 2.1
2016-Jan-01 16:34N 44°09' W 076°20'4 4.3
2016-Jan-01 15:34N 44°12' W 076°15'9 9.3
2016-Jan-01 14:34N 44°06' W 076°25'0 0.0
2016-Jan-01 13:33N 44°06' W 076°25'0 0.3
2016-Jan-01 12:34N 44°05' W 076°25'0 0.3
2016-Jan-01 11:34N 44°06' W 076°25'10 9.8
2016-Jan-01 10:34N 44°12' W 076°15'10 9.8
2016-Jan-01 09:34N 44°06' W 076°25'2 2.1
2016-Jan-01 08:34N 44°04' W 076°26'9 8.9
2016-Jan-01 07:34N 44°11' W 076°19'3 2.8
2016-Jan-01 06:34N 44°12' W 076°15'0 0.0
2016-Jan-01 05:34N 44°12' W 076°15'9 9.3
2016-Jan-01 04:33N 44°06' W 076°25'5 5.0
2016-Jan-01 03:34N 44°09' W 076°20'5 5.0
2016-Jan-01 02:34N 44°06' W 076°25'0 0.0
2016-Jan-01 01:34N 44°06' W 076°25'0 0.0
2016-Jan-01 00:33N 44°06' W 076°25'9 9.3
2015-Dec-31 23:34N 44°12' W 076°15'3 2.5
2015-Dec-31 22:34N 44°11' W 076°19'9 9.3
2015-Dec-31 21:34N 44°04' W 076°26'0 0.0
2015-Dec-31 20:34N 44°04' W 076°26'5 5.1
2015-Dec-31 19:34N 44°08' W 076°21'2 2.0
2015-Dec-31 18:34N 44°09' W 076°20'5 5.1
2015-Dec-31 17:34N 44°06' W 076°25'0 0.0
2015-Dec-31 16:33N 44°06' W 076°25'5 5.0
2015-Dec-31 15:34N 44°09' W 076°20'2 2.5
2015-Dec-31 14:34N 44°11' W 076°19'8 7.5
2015-Dec-31 13:34N 44°05' W 076°25'0 0.0
2015-Dec-31 12:34N 44°05' W 076°25'0 0.3
2015-Dec-31 11:33N 44°06' W 076°25'6 6.4
2015-Dec-31 10:34N 44°11' W 076°19'6 6.4
2015-Dec-31 09:33N 44°06' W 076°25'5 5.0
2015-Dec-31 08:34N 44°09' W 076°20'4 4.3
2015-Dec-31 07:34N 44°12' W 076°15'3 3.2
2015-Dec-31 06:34N 44°11' W 076°19'0 0.0
2015-Dec-31 05:34N 44°11' W 076°19'3 2.6
2015-Dec-31 04:34N 44°12' W 076°16'110 6.5
2015-Dec-30 11:33N 45°14' W 074°07'8 7.7
2015-Dec-30 10:33N 45°16' W 073°57'2 2.1
2015-Dec-30 09:34N 45°18' W 073°56'1 0.8
2015-Dec-30 08:34N 45°19' W 073°55'2 2.3
2015-Dec-30 07:33N 45°21' W 073°53'8 7.6
2015-Dec-30 06:33N 45°24' W 073°43'6 6.0
2015-Dec-30 05:34N 45°24' W 073°35'1 1.1
2015-Dec-30 04:33N 45°24' W 073°33'4 4.2
2015-Dec-30 03:32N 45°28' W 073°30'2 1.5
2015-Dec-30 02:25N 45°30' W 073°31'52 2.6
2015-Dec-29 06:24N 46°13' W 072°49'7 8.8
2015-Dec-29 05:33N 46°16' W 072°39'8 8.2
2015-Dec-29 04:33N 46°21' W 072°30'9 8.7
2015-Dec-29 03:33N 46°26' W 072°20'  
Track history (hours):
 
Tides and Currents Weather Stations Pressure Air Temp Water Temp Dewpoint Dewpoint Depression Visibility Wind Speed Wind Dir Waves Ship Positions

Algowood

Last reported at 2016-Jan-03 14:20 UTC. Time now 2016-Feb-11 02:26 UTC.
Position N 44°11' W 076°19'.
Warning: this ship's position is 38 days out of date.

Length 223 m; draft 8.1 m.

Type: Cargo ship. MMSI: 316001802.

Date/timePositionNaut miles runAvg speedWind from/ knotsBaromVisibWave heightAir tempDewpointWater temp
2016-Jan-03 14:20N 44°11' W 076°19'1 1.3
2016-Jan-03 13:34N 44°11' W 076°19'4 4.0
2016-Jan-03 12:34N 44°12' W 076°14'5 5.0
2016-Jan-03 11:34N 44°09' W 076°20'5 5.0
2016-Jan-03 10:34N 44°06' W 076°25'5 5.0
2016-Jan-03 09:34N 44°09' W 076°20'1 1.5
2016-Jan-03 08:34N 44°11' W 076°19'1 1.5
2016-Jan-03 07:34N 44°09' W 076°20'5 4.8
2016-Jan-03 06:34N 44°12' W 076°15'0 0.2
2016-Jan-03 05:34N 44°12' W 076°14'4 3.7
2016-Jan-03 04:34N 44°11' W 076°19'7 6.6
2016-Jan-03 03:33N 44°06' W 076°25'0 0.0
2016-Jan-03 02:33N 44°06' W 076°25'0 0.0
2016-Jan-03 01:33N 44°06' W 076°25'0 0.0
2016-Jan-03 00:34N 44°06' W 076°25'0 0.3
2016-Jan-02 23:34N 44°05' W 076°25'2 1.8
2016-Jan-02 22:34N 44°04' W 076°26'2 2.1
2016-Jan-02 21:33N 44°06' W 076°25'0 0.3
2016-Jan-02 20:34N 44°05' W 076°25'7 6.8
2016-Jan-02 19:34N 44°11' W 076°19'7 6.6
2016-Jan-02 18:33N 44°06' W 076°25'6 6.3
2016-Jan-02 17:34N 44°11' W 076°19'6 6.3
2016-Jan-02 16:34N 44°06' W 076°25'0 0.0
2016-Jan-02 15:33N 44°06' W 076°25'5 5.0
2016-Jan-02 14:34N 44°09' W 076°20'5 5.0
2016-Jan-02 13:33N 44°06' W 076°25'4 4.3
2016-Jan-02 12:34N 44°08' W 076°20'2 2.2
2016-Jan-02 11:34N 44°11' W 076°19'6 6.3
2016-Jan-02 10:34N 44°06' W 076°25'5 5.0
2016-Jan-02 09:34N 44°09' W 076°20'5 5.0
2016-Jan-02 08:33N 44°06' W 076°25'0 0.0
2016-Jan-02 07:33N 44°06' W 076°25'9 9.3
2016-Jan-02 06:34N 44°12' W 076°15'9 9.3
2016-Jan-02 05:33N 44°06' W 076°25'0 0.0
2016-Jan-02 04:33N 44°06' W 076°25'7 7.3
2016-Jan-02 03:34N 44°11' W 076°19'3 2.8
2016-Jan-02 02:34N 44°09' W 076°20'0 0.4
2016-Jan-02 01:34N 44°08' W 076°20'4 4.3
2016-Jan-02 00:33N 44°06' W 076°25'0 0.0
2016-Jan-01 23:34N 44°06' W 076°25'0 0.0
2016-Jan-01 22:34N 44°06' W 076°25'0 0.3
2016-Jan-01 21:34N 44°05' W 076°25'0 0.3
2016-Jan-01 20:34N 44°06' W 076°25'1010.0
2016-Jan-01 19:34N 44°12' W 076°14'4 3.9
2016-Jan-01 18:34N 44°11' W 076°19'1 0.7
2016-Jan-01 17:34N 44°11' W 076°19'2 2.1
2016-Jan-01 16:34N 44°09' W 076°20'4 4.3
2016-Jan-01 15:34N 44°12' W 076°15'9 9.3
2016-Jan-01 14:34N 44°06' W 076°25'0 0.0
2016-Jan-01 13:33N 44°06' W 076°25'0 0.3
2016-Jan-01 12:34N 44°05' W 076°25'0 0.3
2016-Jan-01 11:34N 44°06' W 076°25'10 9.8
2016-Jan-01 10:34N 44°12' W 076°15'10 9.8
2016-Jan-01 09:34N 44°06' W 076°25'2 2.1
2016-Jan-01 08:34N 44°04' W 076°26'9 8.9
2016-Jan-01 07:34N 44°11' W 076°19'3 2.8
2016-Jan-01 06:34N 44°12' W 076°15'0 0.0
2016-Jan-01 05:34N 44°12' W 076°15'9 9.3
2016-Jan-01 04:33N 44°06' W 076°25'5 5.0
2016-Jan-01 03:34N 44°09' W 076°20'5 5.0
2016-Jan-01 02:34N 44°06' W 076°25'0 0.0
2016-Jan-01 01:34N 44°06' W 076°25'0 0.0
2016-Jan-01 00:33N 44°06' W 076°25'9 9.3
2015-Dec-31 23:34N 44°12' W 076°15'3 2.5
2015-Dec-31 22:34N 44°11' W 076°19'9 9.3
2015-Dec-31 21:34N 44°04' W 076°26'0 0.0
2015-Dec-31 20:34N 44°04' W 076°26'5 5.1
2015-Dec-31 19:34N 44°08' W 076°21'2 2.0
2015-Dec-31 18:34N 44°09' W 076°20'5 5.1
2015-Dec-31 17:34N 44°06' W 076°25'0 0.0
2015-Dec-31 16:33N 44°06' W 076°25'5 5.0
2015-Dec-31 15:34N 44°09' W 076°20'2 2.5
2015-Dec-31 14:34N 44°11' W 076°19'8 7.5
2015-Dec-31 13:34N 44°05' W 076°25'0 0.0
2015-Dec-31 12:34N 44°05' W 076°25'0 0.3
2015-Dec-31 11:33N 44°06' W 076°25'6 6.4
2015-Dec-31 10:34N 44°11' W 076°19'6 6.4
2015-Dec-31 09:33N 44°06' W 076°25'5 5.0
2015-Dec-31 08:34N 44°09' W 076°20'4 4.3
2015-Dec-31 07:34N 44°12' W 076°15'3 3.2
2015-Dec-31 06:34N 44°11' W 076°19'0 0.0
2015-Dec-31 05:34N 44°11' W 076°19'3 2.6
2015-Dec-31 04:34N 44°12' W 076°16'110 6.5
2015-Dec-30 11:33N 45°14' W 074°07'8 7.7
2015-Dec-30 10:33N 45°16' W 073°57'2 2.1
2015-Dec-30 09:34N 45°18' W 073°56'1 0.8
2015-Dec-30 08:34N 45°19' W 073°55'2 2.3
2015-Dec-30 07:33N 45°21' W 073°53'8 7.6
2015-Dec-30 06:33N 45°24' W 073°43'6 6.0
2015-Dec-30 05:34N 45°24' W 073°35'1 1.1
2015-Dec-30 04:33N 45°24' W 073°33'4 4.2
2015-Dec-30 03:32N 45°28' W 073°30'2 1.5
2015-Dec-30 02:25N 45°30' W 073°31'52 2.6
2015-Dec-29 06:24N 46°13' W 072°49'7 8.8
2015-Dec-29 05:33N 46°16' W 072°39'8 8.2
2015-Dec-29 04:33N 46°21' W 072°30'9 8.7
2015-Dec-29 03:33N 46°26' W 072°20'  

Dump ship's entire track history